Flight Track Log - Related Links

Times and Time Zones

All times are in EDT time to prevent confusion due to time zone crossing. See the LXJ437 flight status page for this flight to view local times or setup timezone preferences in your user account.

Time Position Orientation Groundspeed Altitude Reporting Facility
EDT Latitude Longitude Course Direction KTS MPH feet Rate Location/Type
Tue 08:26:12 AM 37.6533 -122.3478 53° Northeast 185 213 2,900  Level Oakland Center
Tue 08:27:12 AM 37.7036 -122.3333 13° North 196 226 6,100 3,100 Climbing Oakland Center
Tue 08:28:12 AM 37.7619 -122.3653 337° Northwest 228 262 9,100 3,000 Climbing Oakland Center
Tue 08:29:12 AM 37.8425 -122.3669 359° North 321 369 12,100 3,200 Climbing Oakland Center
Tue 08:30:12 AM 37.9194 -122.2772 43° Northeast 386 444 15,500 3,570 Climbing Oakland Center
Tue 08:31:00 AM 38.0813 -122.1200 53° Northeast  Level FlightAware Approximate
Tue 08:31:13 AM 37.9967 -122.1675 48° Northeast 414 476 19,300  Level Oakland Center
Tue 08:32:13 AM 38.0697 -122.0447 53° Northeast 433 498 22,400 3,050 Climbing Oakland Center
Tue 08:33:13 AM 38.1422 -121.9133 55° Northeast 449 517 25,400 2,950 Climbing Oakland Center
Tue 08:34:13 AM 38.2161 -121.7806 55° Northeast 459 528 28,300 2,727 Climbing Oakland Center
Tue 08:35:14 AM 38.2919 -121.6472 54° Northeast 464 534 30,900 2,281 Climbing Oakland Center
Tue 08:36:14 AM 38.3672 -121.5119 55° Northeast 468 539 32,900 1,950 Climbing Oakland Center
Tue 08:37:14 AM 38.4444 -121.3739 54° Northeast 476 548 34,800 1,934 Climbing Oakland Center
Tue 08:38:15 AM 38.5214 -121.2322 55° Northeast 485 558 36,800 1,983 Climbing Oakland Center
Tue 08:39:15 AM 38.6083 -121.0775 54° Northeast 479 551 38,800 1,700 Climbing Oakland Center
Tue 08:40:15 AM 38.6839 -120.9400 55° Northeast 474 545 40,200 1,450 Climbing Oakland Center
Tue 08:41:15 AM 38.7589 -120.8031 55° Northeast 471 542 41,700 1,300 Climbing Oakland Center
Tue 08:42:15 AM 38.8319 -120.6681 55° Northeast 464 534 42,800 942 Climbing Oakland Center
Tue 08:43:16 AM 38.9050 -120.5325 55° Northeast 462 532 43,600 645 Climbing Oakland Center
Tue 08:44:16 AM 38.9789 -120.3967 55° Northeast 465 535 44,100 350 Climbing Oakland Center
Tue 08:45:16 AM 39.0542 -120.2550 56° Northeast 478 550 44,300 200 Climbing Oakland Center
Tue 08:46:16 AM 39.1328 -120.1086 55° Northeast 490 564 44,500 347 Climbing Oakland Center
Tue 08:47:17 AM 39.2122 -119.9628 55° Northeast 495 570 45,000 248 Climbing Oakland Center
Tue 08:48:17 AM 39.2919 -119.8131 55° Northeast 502 578 45,000  Level Oakland Center
Tue 08:49:17 AM 39.3711 -119.6644 55° Northeast 501 577 45,000  Level Oakland Center
Tue 08:50:17 AM 39.4475 -119.5172 56° Northeast 494 568 45,000  Level Oakland Center
Tue 08:51:18 AM 39.5231 -119.3706 56° Northeast 489 563 45,000  Level Oakland Center
Tue 08:52:18 AM 39.6003 -119.2211 56° Northeast 493 567 45,000  Level Oakland Center
Tue 08:53:18 AM 39.6767 -119.0728 56° Northeast 491 565 45,000  Level Oakland Center
Tue 08:54:18 AM 39.7536 -118.9250 56° Northeast 490 564 45,000  Level Oakland Center
Tue 08:55:19 AM 39.8300 -118.7756 56° Northeast 491 565 45,000  Level Oakland Center
Tue 08:56:19 AM 39.9061 -118.6253 57° Northeast 493 567 45,000  Level Oakland Center
Tue 08:57:19 AM 39.9822 -118.4747 57° Northeast 494 568 45,000  Level Oakland Center
Tue 08:58:20 AM 40.0589 -118.3222 57° Northeast 500 575 45,000  Level Oakland Center
Tue 08:59:20 AM 40.1350 -118.1706 57° Northeast 499 574 45,000  Level Oakland Center
Tue 09:00:12 AM 40.2003 -118.0386 57° Northeast 499 574 45,000  Level Salt Lake Center
Tue 09:01:13 AM 40.2742 -117.8933 56° Northeast 500 575 45,000  Level Salt Lake Center
Tue 09:02:14 AM 40.3458 -117.7483 57° Northeast 496 571 45,000  Level Salt Lake Center
Tue 09:03:14 AM 40.4297 -117.5792 57° Northeast 495 570 45,000  Level Salt Lake Center
Tue 09:04:15 AM 40.5014 -117.4331 57° Northeast 495 570 45,000  Level Salt Lake Center
Tue 09:05:16 AM 40.5722 -117.2867 57° Northeast 494 568 45,000  Level Salt Lake Center
Tue 09:06:17 AM 40.6442 -117.1403 57° Northeast 493 567 45,000  Level Salt Lake Center
Tue 09:07:18 AM 40.7267 -116.9686 58° Northeast 492 566 45,000  Level Salt Lake Center
Tue 09:08:19 AM 40.7981 -116.8219 57° Northeast 491 565 45,000  Level Salt Lake Center
Tue 09:09:20 AM 40.8678 -116.6753 58° Northeast 492 566 45,000  Level Salt Lake Center
Tue 09:10:20 AM 40.9508 -116.5039 57° Northeast 492 566 45,000  Level Salt Lake Center
Tue 09:11:21 AM 41.0206 -116.3572 58° Northeast 492 566 45,000  Level Salt Lake Center
Tue 09:12:22 AM 41.0878 -116.2083 59° Northeast 491 565 45,000  Level Salt Lake Center
Tue 09:13:23 AM 41.1692 -116.0378 58° Northeast 490 564 45,000  Level Salt Lake Center
Tue 09:14:24 AM 41.2392 -115.8903 58° Northeast 492 566 45,000  Level Salt Lake Center
Tue 09:15:25 AM 41.3064 -115.7419 59° Northeast 489 563 45,000  Level Salt Lake Center
Tue 09:16:26 AM 41.3864 -115.5692 58° Northeast 492 566 45,000  Level Salt Lake Center
Tue 09:17:27 AM 41.4536 -115.4214 59° Northeast 489 563 45,000  Level Salt Lake Center
Tue 09:18:28 AM 41.5231 -115.2719 58° Northeast 493 567 45,000  Level Salt Lake Center
Tue 09:19:28 AM 41.6014 -115.0983 59° Northeast 490 564 45,000  Level Salt Lake Center
Tue 09:20:29 AM 41.6689 -114.9483 59° Northeast 491 565 45,000  Level Salt Lake Center
Tue 09:21:30 AM 41.7364 -114.7994 59° Northeast 490 564 45,000  Level Salt Lake Center
Tue 09:22:31 AM 41.8144 -114.6244 59° Northeast 490 564 45,000  Level Salt Lake Center
Tue 09:23:32 AM 41.8794 -114.4811 59° Northeast 491 565 45,000  Level Salt Lake Center
Tue 09:24:33 AM 41.9481 -114.3233 60° Northeast 490 564 45,000  Level Salt Lake Center
Tue 09:25:34 AM 42.0178 -114.1658 59° Northeast 491 565 45,000  Level Salt Lake Center
Tue 09:26:35 AM 42.0878 -114.0086 59° Northeast 491 565 45,000  Level Salt Lake Center
Tue 09:27:36 AM 42.1644 -113.8564 56° Northeast 491 565 45,000  Level Salt Lake Center
Tue 09:28:37 AM 42.2522 -113.6722 57° Northeast 487 560 45,000  Level Salt Lake Center
Tue 09:29:38 AM 42.3275 -113.5181 57° Northeast 490 564 45,000  Level Salt Lake Center
Tue 09:30:39 AM 42.4014 -113.3639 57° Northeast 490 564 45,000  Level Salt Lake Center
Tue 09:31:40 AM 42.4758 -113.2094 57° Northeast 490 564 45,000  Level Salt Lake Center
Tue 09:32:41 AM 42.5492 -113.0564 57° Northeast 487 560 45,000 -934 Level Salt Lake Center
Tue 09:33:42 AM 42.6222 -112.8989 58° Northeast 491 565 43,100 -2,311 Descending Salt Lake Center
Tue 09:34:43 AM 42.6942 -112.7492 57° Northeast 492 566 40,300 -3,024 Descending Salt Lake Center
Tue 09:35:45 AM 42.7758 -112.5767 57° Northeast 486 559 36,900 -3,073 Descending Salt Lake Center
Tue 09:36:46 AM 42.8425 -112.4297 58° Northeast 479 551 34,000 -2,803 Descending Salt Lake Center
Tue 09:37:47 AM 42.9086 -112.2925 57° Northeast 461 531 31,200 -3,049 Descending Salt Lake Center
Tue 09:38:48 AM 42.9803 -112.1358 58° Northeast 439 505 27,800 -3,098 Descending Salt Lake Center
Tue 09:39:49 AM 43.0464 -111.9922 58° Northeast 461 531 24,900 -3,049 Descending Salt Lake Center
Tue 09:40:50 AM 43.1222 -111.8242 58° Northeast 465 535 21,600 -2,902 Descending Salt Lake Center
Tue 09:41:51 AM 43.1842 -111.6869 58° Northeast 449 517 19,000 -2,213 Descending Salt Lake Center
Tue 09:42:52 AM 43.2439 -111.5561 58° Northeast 432 497 17,100 -1,073 Descending Salt Lake Center
Tue 09:43:54 AM 43.3117 -111.4044 58° Northeast 422 486 16,800 -244 Descending Salt Lake Center
Tue 09:44:55 AM 43.3725 -111.2703 58° Northeast 420 483 16,600 -885 Descending Salt Lake Center
Tue 09:45:56 AM 43.3642 -111.1392 95° East 358 412 15,000 -1,770 Descending Salt Lake Center
Tue 09:46:57 AM 43.3561 -111.0186 95° East 323 372 13,000 -1,756 Descending Salt Lake Center
Tue 09:47:59 AM 43.3728 -110.9203 77° East 276 318 11,400 -1,659 Descending Salt Lake Center
Tue 09:49:00 AM 43.4186 -110.8536 47° Northeast 246 283 9,600 -1,082 Descending Salt Lake Center
Tue 09:50:01 AM 43.4642 -110.8083 36° Northeast 216 249 9,200 -780 Descending Salt Lake Center
Tue 09:51:03 AM 43.5244 -110.7786 20° North 200 230 8,000 -927 Descending Salt Lake Center
Tue 09:52:04 AM 43.5583 -110.7617 20° North 157 181 7,300 -738 Descending Salt Lake Center
Tue 09:53:05 AM 43.5942 -110.7444 19° North 140 161 6,500 -787 Descending Salt Lake Center

Login

Don't have an account? Register now (free) for customized features, flight alerts, and more!